Time,TemperatureF,DewpointF,PressureIn,WindDirection,WindDirectionDegrees,WindSpeedMPH,WindSpeedGustMPH,Humidity,HourlyPrecipIn,Conditions,Clouds,dailyrainin,SoftwareType,DateUTC
2015-03-27 00:00:00,37.2,35.6,29.80,ESE,122,0.0,0.0,94,0.00,,,0.45,Wunderground v.1.15,2015-03-27 04:00:00,
2015-03-27 00:05:00,37.2,35.6,29.80,ESE,122,0.0,0.0,94,0.00,,,0.00,Wunderground v.1.15,2015-03-27 04:05:00,
2015-03-27 00:10:00,37.2,35.6,29.80,ESE,122,0.0,0.0,94,0.00,,,0.00,Wunderground v.1.15,2015-03-27 04:10:00,
2015-03-27 00:20:00,37.2,35.6,29.79,ESE,122,0.0,0.0,94,0.00,,,0.00,Wunderground v.1.15,2015-03-27 04:20:00,
2015-03-27 00:25:00,37.1,35.5,29.79,ESE,122,0.0,0.0,94,0.00,,,0.00,Wunderground v.1.15,2015-03-27 04:25:00,
2015-03-27 00:30:00,37.2,35.9,29.79,ESE,122,0.0,0.0,95,0.00,,,0.00,Wunderground v.1.15,2015-03-27 04:30:00,
2015-03-27 00:35:00,37.1,35.5,29.80,ESE,122,0.0,0.0,94,0.00,,,0.00,Wunderground v.1.15,2015-03-27 04:35:00,
2015-03-27 00:40:00,37.1,35.5,29.79,ESE,122,0.0,1.0,94,0.00,,,0.01,Wunderground v.1.15,2015-03-27 04:40:00,
2015-03-27 00:50:00,37.1,35.8,29.77,ESE,122,1.0,1.0,95,0.00,,,0.01,Wunderground v.1.15,2015-03-27 04:50:00,
2015-03-27 00:55:00,37.1,35.8,29.78,ESE,122,1.0,1.0,95,0.00,,,0.01,Wunderground v.1.15,2015-03-27 04:55:00,
2015-03-27 01:00:00,37.1,35.5,29.78,ESE,122,0.0,1.0,94,0.00,,,0.01,Wunderground v.1.15,2015-03-27 05:00:00,
2015-03-27 01:05:00,37.1,35.8,29.78,ESE,122,1.0,1.0,95,0.00,,,0.01,Wunderground v.1.15,2015-03-27 05:05:00,
2015-03-27 01:10:00,37.0,35.7,29.78,ESE,122,0.0,0.0,95,0.00,,,0.01,Wunderground v.1.15,2015-03-27 05:10:00,
2015-03-27 01:15:00,36.9,35.3,29.78,ESE,122,0.0,0.0,94,0.00,,,0.01,Wunderground v.1.15,2015-03-27 05:15:00,
2015-03-27 01:25:00,36.8,35.2,29.78,ESE,122,0.0,0.0,94,0.00,,,0.01,Wunderground v.1.15,2015-03-27 05:25:00,
2015-03-27 01:30:00,36.8,35.2,29.79,ESE,122,0.0,0.0,94,0.00,,,0.01,Wunderground v.1.15,2015-03-27 05:30:00,
2015-03-27 01:35:00,36.8,35.5,29.80,ESE,122,0.0,1.0,95,0.00,,,0.01,Wunderground v.1.15,2015-03-27 05:35:00,
2015-03-27 01:40:00,36.7,35.4,29.79,ESE,122,0.0,0.0,95,0.00,,,0.01,Wunderground v.1.15,2015-03-27 05:40:00,
2015-03-27 01:45:00,36.6,35.3,29.80,ESE,122,0.0,0.0,95,0.00,,,0.01,Wunderground v.1.15,2015-03-27 05:45:00,
2015-03-27 01:50:00,36.5,35.2,29.79,ESE,122,0.0,0.0,95,0.00,,,0.01,Wunderground v.1.15,2015-03-27 05:50:00,
2015-03-27 02:00:00,36.5,35.2,29.78,ESE,122,0.0,0.0,95,0.00,,,0.01,Wunderground v.1.15,2015-03-27 06:00:00,
2015-03-27 02:10:00,36.6,35.3,29.78,ESE,122,0.0,0.0,95,0.00,,,0.01,Wunderground v.1.15,2015-03-27 06:10:00,
2015-03-27 02:15:00,36.7,35.4,29.78,ESE,122,0.0,0.0,95,0.00,,,0.01,Wunderground v.1.15,2015-03-27 06:15:00,
2015-03-27 02:20:00,36.8,35.5,29.78,ESE,122,0.0,0.0,95,0.00,,,0.01,Wunderground v.1.15,2015-03-27 06:20:00,
2015-03-27 02:25:00,36.8,35.5,29.78,ESE,122,0.0,0.0,95,0.00,,,0.01,Wunderground v.1.15,2015-03-27 06:25:00,
2015-03-27 02:35:00,36.8,35.5,29.77,ESE,122,1.0,2.0,95,0.00,,,0.01,Wunderground v.1.15,2015-03-27 06:35:00,
2015-03-27 02:40:00,36.8,35.5,29.76,ESE,121,1.0,1.0,95,0.00,,,0.01,Wunderground v.1.15,2015-03-27 06:40:00,
2015-03-27 02:45:00,36.9,35.6,29.77,ESE,121,1.0,1.0,95,0.00,,,0.01,Wunderground v.1.15,2015-03-27 06:45:00,
2015-03-27 02:50:00,37.0,35.7,29.78,ESE,121,1.0,1.0,95,0.00,,,0.01,Wunderground v.1.15,2015-03-27 06:50:00,
2015-03-27 03:00:00,37.0,35.7,29.78,ESE,121,0.0,0.0,95,0.00,,,0.01,Wunderground v.1.15,2015-03-27 07:00:00,
2015-03-27 03:10:00,37.0,35.7,29.79,ESE,121,0.0,0.0,95,0.00,,,0.01,Wunderground v.1.15,2015-03-27 07:10:00,
2015-03-27 03:15:00,37.0,35.7,29.78,ESE,121,0.0,0.0,95,0.00,,,0.01,Wunderground v.1.15,2015-03-27 07:15:00,
2015-03-27 03:20:00,36.9,35.6,29.77,ESE,121,0.0,1.0,95,0.00,,,0.01,Wunderground v.1.15,2015-03-27 07:20:00,
2015-03-27 03:25:00,37.0,35.7,29.78,South,169,1.0,1.0,95,0.00,,,0.01,Wunderground v.1.15,2015-03-27 07:25:00,
2015-03-27 03:30:00,37.0,35.7,29.79,South,191,2.0,2.0,95,0.00,,,0.01,Wunderground v.1.15,2015-03-27 07:30:00,
2015-03-27 03:40:00,36.9,35.6,29.78,SSW,192,1.0,1.0,95,0.00,,,0.01,Wunderground v.1.15,2015-03-27 07:40:00,
2015-03-27 03:45:00,36.8,35.5,29.78,SSW,192,0.0,1.0,95,0.00,,,0.01,Wunderground v.1.15,2015-03-27 07:45:00,
2015-03-27 03:50:00,36.8,35.5,29.77,South,191,1.0,1.0,95,0.00,,,0.01,Wunderground v.1.15,2015-03-27 07:50:00,
2015-03-27 03:55:00,36.8,35.5,29.78,South,191,1.0,1.0,95,0.00,,,0.01,Wunderground v.1.15,2015-03-27 07:55:00,
2015-03-27 04:05:00,36.7,35.4,29.77,South,191,0.0,0.0,95,0.00,,,0.01,Wunderground v.1.15,2015-03-27 08:05:00,
2015-03-27 04:15:00,36.7,35.4,29.78,South,191,0.0,0.0,95,0.00,,,0.01,Wunderground v.1.15,2015-03-27 08:15:00,
2015-03-27 04:20:00,36.6,35.3,29.77,South,191,0.0,0.0,95,0.00,,,0.01,Wunderground v.1.15,2015-03-27 08:20:00,
2015-03-27 04:25:00,36.6,35.3,29.77,South,191,0.0,0.0,95,0.00,,,0.01,Wunderground v.1.15,2015-03-27 08:25:00,
2015-03-27 04:30:00,36.5,35.2,29.78,South,191,0.0,0.0,95,0.00,,,0.01,Wunderground v.1.15,2015-03-27 08:30:00,
2015-03-27 04:35:00,36.3,34.7,29.79,South,191,0.0,1.0,94,0.00,,,0.01,Wunderground v.1.15,2015-03-27 08:35:00,
2015-03-27 04:40:00,36.3,34.7,29.79,South,191,1.0,1.0,94,0.00,,,0.01,Wunderground v.1.15,2015-03-27 08:40:00,
2015-03-27 04:50:00,36.3,34.7,29.79,South,191,1.0,1.0,94,0.00,,,0.01,Wunderground v.1.15,2015-03-27 08:50:00,
2015-03-27 04:55:00,36.2,34.4,29.80,South,191,1.0,1.0,93,0.00,,,0.01,Wunderground v.1.15,2015-03-27 08:55:00,
2015-03-27 05:00:00,36.3,34.5,29.80,South,191,1.0,1.0,93,0.00,,,0.01,Wunderground v.1.15,2015-03-27 09:00:00,
2015-03-27 05:05:00,36.3,34.2,29.80,South,191,1.0,1.0,92,0.00,,,0.01,Wunderground v.1.15,2015-03-27 09:05:00,
2015-03-27 05:10:00,36.4,34.0,29.79,South,190,1.0,1.0,91,0.00,,,0.01,Wunderground v.1.15,2015-03-27 09:10:00,
2015-03-27 05:20:00,36.4,34.0,29.78,South,190,1.0,1.0,91,0.00,,,0.01,Wunderground v.1.15,2015-03-27 09:20:00,
2015-03-27 05:25:00,36.4,33.7,29.78,South,190,1.0,1.0,90,0.00,,,0.01,Wunderground v.1.15,2015-03-27 09:25:00,
2015-03-27 05:30:00,36.3,33.6,29.78,South,188,0.0,1.0,90,0.00,,,0.01,Wunderground v.1.15,2015-03-27 09:30:00,
2015-03-27 05:35:00,36.4,33.7,29.78,SE,137,1.0,1.0,90,0.00,,,0.01,Wunderground v.1.15,2015-03-27 09:35:00,
2015-03-27 05:40:00,36.5,33.6,29.78,ESE,119,1.0,1.0,89,0.00,,,0.01,Wunderground v.1.15,2015-03-27 09:40:00,
2015-03-27 05:45:00,36.5,33.6,29.79,ESE,103,1.0,1.0,89,0.00,,,0.01,Wunderground v.1.15,2015-03-27 09:45:00,
2015-03-27 05:55:00,36.6,33.7,29.80,ESE,103,0.0,1.0,89,0.00,,,0.01,Wunderground v.1.15,2015-03-27 09:55:00,
2015-03-27 06:00:00,36.6,33.7,29.81,ESE,103,0.0,0.0,89,0.00,,,0.01,Wunderground v.1.15,2015-03-27 10:00:00,
2015-03-27 06:05:00,36.6,33.7,29.80,ESE,103,0.0,0.0,89,0.00,,,0.01,Wunderground v.1.15,2015-03-27 10:05:00,
2015-03-27 06:15:00,36.2,33.5,29.81,ESE,103,0.0,0.0,90,0.00,,,0.01,Wunderground v.1.15,2015-03-27 10:15:00,
2015-03-27 06:20:00,36.0,33.4,29.82,ESE,103,0.0,0.0,90,0.00,,,0.01,Wunderground v.1.15,2015-03-27 10:20:00,
2015-03-27 06:30:00,35.9,33.3,29.84,ESE,103,0.0,0.0,90,0.00,,,0.01,Wunderground v.1.15,2015-03-27 10:30:00,
2015-03-27 06:35:00,35.9,33.5,29.84,ESE,103,0.0,0.0,91,0.00,,,0.01,Wunderground v.1.15,2015-03-27 10:35:00,
2015-03-27 06:40:00,36.0,33.6,29.84,ESE,103,0.0,0.0,91,0.00,,,0.01,Wunderground v.1.15,2015-03-27 10:40:00,
2015-03-27 06:45:00,35.8,33.4,29.85,ESE,103,0.0,0.0,91,0.00,,,0.01,Wunderground v.1.15,2015-03-27 10:45:00,
2015-03-27 06:50:00,35.7,33.6,29.84,ESE,103,0.0,0.0,92,0.00,,,0.01,Wunderground v.1.15,2015-03-27 10:50:00,
2015-03-27 06:55:00,35.5,33.4,29.84,ESE,103,0.0,0.0,92,0.00,,,0.01,Wunderground v.1.15,2015-03-27 10:55:00,
2015-03-27 07:05:00,35.3,33.2,29.84,ESE,103,0.0,1.0,92,0.00,,,0.02,Wunderground v.1.15,2015-03-27 11:05:00,
2015-03-27 07:10:00,35.2,33.4,29.82,ESE,103,1.0,1.0,93,0.00,,,0.02,Wunderground v.1.15,2015-03-27 11:10:00,
2015-03-27 07:15:00,35.3,33.5,29.82,ESE,103,0.0,1.0,93,0.00,,,0.02,Wunderground v.1.15,2015-03-27 11:15:00,
2015-03-27 07:20:00,35.2,33.4,29.83,ESE,103,0.0,0.0,93,0.00,,,0.02,Wunderground v.1.15,2015-03-27 11:20:00,
2015-03-27 07:30:00,35.2,33.4,29.84,ESE,103,0.0,0.0,93,0.00,,,0.02,Wunderground v.1.15,2015-03-27 11:30:00,
2015-03-27 07:40:00,35.2,33.4,29.86,ESE,104,0.0,2.0,93,0.00,,,0.02,Wunderground v.1.15,2015-03-27 11:40:00,
2015-03-27 07:45:00,35.2,33.4,29.86,ESE,104,0.0,2.0,93,0.00,,,0.02,Wunderground v.1.15,2015-03-27 11:45:00,
2015-03-27 07:50:00,35.3,33.5,29.84,ESE,104,0.0,0.0,93,0.00,,,0.02,Wunderground v.1.15,2015-03-27 11:50:00,
2015-03-27 07:55:00,35.3,33.7,29.84,ESE,104,0.0,0.0,94,0.00,,,0.02,Wunderground v.1.15,2015-03-27 11:55:00,
2015-03-27 08:00:00,35.4,33.8,29.85,ESE,104,0.0,0.0,94,0.00,,,0.02,Wunderground v.1.15,2015-03-27 12:00:00,
2015-03-27 08:10:00,35.6,34.0,29.85,ESE,104,0.0,0.0,94,0.00,,,0.02,Wunderground v.1.15,2015-03-27 12:10:00,
2015-03-27 08:15:00,35.7,34.1,29.85,ESE,104,0.0,0.0,94,0.00,,,0.02,Wunderground v.1.15,2015-03-27 12:15:00,
2015-03-27 08:20:00,35.8,34.2,29.85,ESE,104,0.0,0.0,94,0.00,,,0.02,Wunderground v.1.15,2015-03-27 12:20:00,
2015-03-27 08:30:00,35.9,34.1,29.84,ESE,104,0.0,0.0,93,0.00,,,0.02,Wunderground v.1.15,2015-03-27 12:30:00,
2015-03-27 08:35:00,35.9,34.3,29.85,ESE,104,0.0,0.0,94,0.00,,,0.02,Wunderground v.1.15,2015-03-27 12:35:00,
2015-03-27 08:45:00,35.7,34.1,29.84,ESE,104,0.0,0.0,94,0.00,,,0.03,Wunderground v.1.15,2015-03-27 12:45:00,
2015-03-27 08:50:00,35.8,34.2,29.83,ESE,104,0.0,1.0,94,0.00,,,0.03,Wunderground v.1.15,2015-03-27 12:50:00,
2015-03-27 08:55:00,35.7,34.1,29.83,ESE,104,0.0,1.0,94,0.00,,,0.03,Wunderground v.1.15,2015-03-27 12:55:00,
2015-03-27 09:00:00,35.8,34.2,29.83,ESE,104,0.0,0.0,94,0.00,,,0.03,Wunderground v.1.15,2015-03-27 13:00:00,
2015-03-27 09:05:00,35.8,34.2,29.83,ESE,104,0.0,1.0,94,0.00,,,0.03,Wunderground v.1.15,2015-03-27 13:05:00,
2015-03-27 09:10:00,35.8,34.2,29.84,ESE,104,1.0,1.0,94,0.00,,,0.03,Wunderground v.1.15,2015-03-27 13:10:00,
2015-03-27 09:20:00,36.0,34.7,29.84,ENE,76,1.0,1.0,95,0.00,,,0.03,Wunderground v.1.15,2015-03-27 13:20:00,
2015-03-27 09:25:00,35.8,34.2,29.85,NE,53,2.0,3.0,94,0.00,,,0.03,Wunderground v.1.15,2015-03-27 13:25:00,
2015-03-27 09:30:00,35.6,34.0,29.84,ENE,69,3.0,4.0,94,0.00,,,0.03,Wunderground v.1.15,2015-03-27 13:30:00,
2015-03-27 09:40:00,35.5,34.2,29.85,ESE,113,2.0,2.0,95,0.00,,,0.03,Wunderground v.1.15,2015-03-27 13:40:00,
2015-03-27 09:45:00,35.5,34.2,29.85,ESE,113,1.0,2.0,95,0.00,,,0.03,Wunderground v.1.15,2015-03-27 13:45:00,
2015-03-27 09:55:00,35.5,34.2,29.84,ESE,113,1.0,1.0,95,0.00,,,0.03,Wunderground v.1.15,2015-03-27 13:55:00,
2015-03-27 10:00:00,35.5,34.2,29.83,ESE,113,0.0,2.0,95,0.00,,,0.03,Wunderground v.1.15,2015-03-27 14:00:00,
2015-03-27 10:05:00,35.6,34.0,29.82,ESE,110,1.0,2.0,94,0.00,,,0.03,Wunderground v.1.15,2015-03-27 14:05:00,
2015-03-27 10:10:00,35.7,34.1,29.84,ESE,110,1.0,1.0,94,0.00,,,0.03,Wunderground v.1.15,2015-03-27 14:10:00,
2015-03-27 10:15:00,35.7,34.1,29.85,ESE,110,0.0,1.0,94,0.00,,,0.03,Wunderground v.1.15,2015-03-27 14:15:00,